createdAt,value
2023-03-10T00:01:30.837Z,98.30
2023-03-10T00:03:58.850Z,98.30
2023-03-10T00:06:28.343Z,98.40
2023-03-10T00:08:56.099Z,98.40
2023-03-10T00:11:23.216Z,98.40
2023-03-10T00:13:50.137Z,98.40
2023-03-10T00:16:23.185Z,98.30
2023-03-10T00:18:50.486Z,98.50
2023-03-10T00:21:20.311Z,98.40
2023-03-10T00:23:47.397Z,98.60
2023-03-10T00:26:19.397Z,98.70
2023-03-10T00:28:46.953Z,98.70
2023-03-10T00:31:16.919Z,98.70
2023-03-10T00:33:43.923Z,98.80
2023-03-10T00:36:22.236Z,98.80
2023-03-10T00:38:50.213Z,98.70
2023-03-10T00:41:20.896Z,98.80
2023-03-10T00:43:48.151Z,98.80
2023-03-10T00:46:15.322Z,98.80
2023-03-10T00:48:42.234Z,98.90
2023-03-10T00:51:09.532Z,98.90
2023-03-10T00:53:39.007Z,99.00
2023-03-10T00:56:17.996Z,98.90
2023-03-10T00:58:46.629Z,99.00
2023-03-10T01:01:26.723Z,99.40
2023-03-10T01:03:55.918Z,99.40
2023-03-10T01:06:23.350Z,99.60
2023-03-10T01:08:50.402Z,99.60
2023-03-10T01:11:19.546Z,99.80
2023-03-10T01:13:47.079Z,99.80
2023-03-10T01:16:14.269Z,99.90
2023-03-10T01:18:41.122Z,99.90
2023-03-10T01:21:14.170Z,99.90
2023-03-10T01:23:40.958Z,99.90
2023-03-10T01:26:07.821Z,99.90
2023-03-10T01:28:34.602Z,99.90
2023-03-10T01:31:01.576Z,99.90
2023-03-10T01:33:28.473Z,99.90
2023-03-10T01:35:55.375Z,99.90
2023-03-10T01:38:22.180Z,99.90
2023-03-10T01:40:50.289Z,99.90
2023-03-10T01:43:20.199Z,99.90
2023-03-10T01:45:47.047Z,99.90
2023-03-10T01:48:15.554Z,99.90
2023-03-10T01:50:45.436Z,99.90
2023-03-10T01:53:14.431Z,99.90
2023-03-10T01:55:46.687Z,99.90
2023-03-10T01:58:16.829Z,99.90
2023-03-10T02:00:44.172Z,99.90
2023-03-10T02:03:24.680Z,99.90
2023-03-10T02:06:10.095Z,99.90
2023-03-10T02:08:46.375Z,99.90
2023-03-10T02:11:15.078Z,99.90
2023-03-10T02:13:41.898Z,99.90
2023-03-10T02:16:09.035Z,99.90
2023-03-10T02:18:36.014Z,99.90
2023-03-10T02:21:08.955Z,99.90
2023-03-10T02:24:14.790Z,99.90
2023-03-10T02:27:01.237Z,99.90
2023-03-10T02:29:59.147Z,99.90
2023-03-10T02:32:29.432Z,99.90
2023-03-10T02:34:56.413Z,99.90
2023-03-10T02:37:28.155Z,99.90
2023-03-10T02:39:55.110Z,99.90
2023-03-10T02:42:25.212Z,99.90
2023-03-10T02:44:52.934Z,99.90
2023-03-10T02:47:20.484Z,99.90
2023-03-10T02:49:47.611Z,99.90
2023-03-10T02:52:43.590Z,99.90
2023-03-10T02:55:19.656Z,99.90
2023-03-10T02:57:46.476Z,99.90
2023-03-10T03:00:13.773Z,99.90
2023-03-10T03:02:40.671Z,99.90
2023-03-10T03:05:08.113Z,99.90
2023-03-10T03:07:34.941Z,99.90
2023-03-10T03:10:02.292Z,99.90
2023-03-10T03:12:29.082Z,99.90
2023-03-10T03:14:56.101Z,99.90
2023-03-10T03:17:23.432Z,99.90
2023-03-10T03:19:50.233Z,99.90
2023-03-10T03:22:16.993Z,99.90
2023-03-10T03:24:43.837Z,99.90
2023-03-10T03:27:10.620Z,99.90
2023-03-10T03:29:37.433Z,99.90
2023-03-10T03:32:04.637Z,99.90
2023-03-10T03:34:31.515Z,99.90
2023-03-10T03:36:58.396Z,99.90
2023-03-10T03:39:25.247Z,99.90
2023-03-10T03:41:57.309Z,99.90
2023-03-10T03:44:24.151Z,99.90
2023-03-10T03:46:50.962Z,99.90
2023-03-10T03:49:17.747Z,99.90
2023-03-10T03:51:44.620Z,99.90
2023-03-10T03:54:11.514Z,99.90
2023-03-10T03:56:38.410Z,99.90
2023-03-10T03:59:05.848Z,99.90
2023-03-10T04:01:32.805Z,99.90
2023-03-10T04:03:59.608Z,99.90
2023-03-10T04:06:26.425Z,99.90
2023-03-10T04:08:53.335Z,99.90
2023-03-10T04:11:20.117Z,99.90
2023-03-10T04:13:47.020Z,99.90
2023-03-10T04:16:13.972Z,99.90
2023-03-10T04:18:41.404Z,99.90
2023-03-10T04:21:08.195Z,99.90
2023-03-10T04:23:35.014Z,99.90
2023-03-10T04:26:01.811Z,99.90
2023-03-10T04:28:28.567Z,99.90
2023-03-10T04:30:55.411Z,99.90
2023-03-10T04:33:22.260Z,99.90
2023-03-10T04:35:51.468Z,99.90
2023-03-10T04:38:18.668Z,99.90
2023-03-10T04:40:45.593Z,99.90
2023-03-10T04:43:12.432Z,99.90
2023-03-10T04:45:39.223Z,99.90
2023-03-10T04:48:06.126Z,99.90
2023-03-10T04:50:32.917Z,99.90
2023-03-10T04:52:59.703Z,99.90
2023-03-10T04:55:26.468Z,99.90
2023-03-10T04:57:53.363Z,99.90
2023-03-10T05:00:20.424Z,99.90
2023-03-10T05:02:47.256Z,99.90
2023-03-10T05:05:14.237Z,99.90
2023-03-10T05:07:41.061Z,99.90
2023-03-10T05:10:08.148Z,99.90
2023-03-10T05:12:34.960Z,99.90
2023-03-10T05:15:01.820Z,99.90
2023-03-10T05:17:29.438Z,99.90
2023-03-10T05:19:57.936Z,99.90
2023-03-10T05:22:24.691Z,99.90
2023-03-10T05:24:51.890Z,99.90
2023-03-10T05:27:19.901Z,99.90
2023-03-10T05:29:47.152Z,99.90
2023-03-10T05:32:13.929Z,99.90
2023-03-10T05:34:40.730Z,99.90
2023-03-10T05:37:07.502Z,99.90
2023-03-10T05:39:34.357Z,99.90
2023-03-10T05:42:01.145Z,99.90
2023-03-10T05:44:27.921Z,99.90
2023-03-10T05:46:54.951Z,99.90
2023-03-10T05:49:21.820Z,99.90
2023-03-10T05:51:49.221Z,99.90
2023-03-10T05:54:16.810Z,99.90
2023-03-10T05:56:43.611Z,99.90
2023-03-10T05:59:10.497Z,99.90
2023-03-10T06:01:37.510Z,99.90
2023-03-10T06:04:04.753Z,99.90
2023-03-10T06:06:31.803Z,99.90
2023-03-10T06:08:58.623Z,99.90
2023-03-10T06:11:25.436Z,99.90
2023-03-10T06:13:52.499Z,99.90
2023-03-10T06:16:19.696Z,99.90
2023-03-10T06:18:46.526Z,99.90
2023-03-10T06:21:14.900Z,99.90
2023-03-10T06:23:41.758Z,99.90
2023-03-10T06:26:12.489Z,99.90
2023-03-10T06:28:41.982Z,99.90
2023-03-10T06:31:14.653Z,99.90
2023-03-10T06:33:41.507Z,99.90
2023-03-10T06:36:10.908Z,99.90
2023-03-10T06:38:38.663Z,99.90
2023-03-10T06:41:06.023Z,99.90
2023-03-10T06:43:33.775Z,99.90
2023-03-10T06:46:04.530Z,99.90
2023-03-10T06:48:31.475Z,99.90
2023-03-10T06:50:58.305Z,99.90
2023-03-10T06:53:26.996Z,99.90
2023-03-10T06:56:05.672Z,99.90
2023-03-10T06:58:34.734Z,99.90
2023-03-10T07:01:01.888Z,99.90
2023-03-10T07:03:29.346Z,99.90
2023-03-10T07:05:59.839Z,99.90
2023-03-10T07:08:30.089Z,99.90
2023-03-10T07:10:57.281Z,99.90
2023-03-10T07:13:24.114Z,99.90
2023-03-10T07:15:51.111Z,99.90
2023-03-10T07:18:17.932Z,99.90
2023-03-10T07:20:45.241Z,99.90
2023-03-10T07:23:12.783Z,99.90
2023-03-10T07:25:39.748Z,99.90
2023-03-10T07:28:07.461Z,99.90
2023-03-10T07:30:34.687Z,99.90
2023-03-10T07:33:01.492Z,99.90
2023-03-10T07:35:28.265Z,99.90
2023-03-10T07:37:55.081Z,99.90
2023-03-10T07:40:25.234Z,99.90
2023-03-10T07:42:54.784Z,99.90
2023-03-10T07:45:23.524Z,99.90
2023-03-10T07:47:51.873Z,99.90
2023-03-10T07:50:20.075Z,99.90
2023-03-10T07:52:47.356Z,99.90
2023-03-10T07:55:14.171Z,99.90
2023-03-10T07:57:41.071Z,99.90
2023-03-10T08:00:09.280Z,99.90
2023-03-10T08:02:36.202Z,99.90
2023-03-10T08:05:03.044Z,99.90
2023-03-10T08:07:30.546Z,99.90
2023-03-10T08:09:57.391Z,99.90
2023-03-10T08:12:24.411Z,99.90
2023-03-10T08:14:52.091Z,99.90
2023-03-10T08:17:19.767Z,99.90
2023-03-10T08:19:46.529Z,99.90
2023-03-10T08:22:13.336Z,99.90
2023-03-10T08:24:40.428Z,99.90
2023-03-10T08:27:07.289Z,99.90
2023-03-10T08:29:34.281Z,99.90
2023-03-10T08:32:01.202Z,99.90
2023-03-10T08:34:32.698Z,99.90
2023-03-10T08:37:00.923Z,99.90
2023-03-10T08:39:28.820Z,99.90
2023-03-10T08:41:56.150Z,99.90
2023-03-10T08:44:23.160Z,99.90
2023-03-10T08:46:51.192Z,99.90
2023-03-10T08:49:20.103Z,99.90
2023-03-10T08:51:47.119Z,99.90
2023-03-10T08:54:16.608Z,99.90
2023-03-10T08:56:44.068Z,99.90
2023-03-10T08:59:10.861Z,99.90
2023-03-10T09:01:38.876Z,99.90
2023-03-10T09:04:08.219Z,99.90
2023-03-10T09:06:36.432Z,99.90
2023-03-10T09:09:05.235Z,99.90
2023-03-10T09:11:35.899Z,99.90
2023-03-10T09:14:04.529Z,99.90
2023-03-10T09:16:31.598Z,99.90
2023-03-10T09:18:59.269Z,99.90
2023-03-10T09:21:27.337Z,99.90
2023-03-10T09:23:54.560Z,99.90
2023-03-10T09:26:22.067Z,99.90
2023-03-10T09:28:51.150Z,99.90
2023-03-10T09:31:21.668Z,99.90
2023-03-10T09:33:48.751Z,99.90
2023-03-10T09:36:16.366Z,99.90
2023-03-10T09:38:43.662Z,99.90
2023-03-10T09:41:49.338Z,99.90
2023-03-10T09:44:30.939Z,99.90
2023-03-10T09:47:09.629Z,99.90
2023-03-10T09:49:59.455Z,99.90
2023-03-10T09:52:26.174Z,99.90
2023-03-10T09:55:01.755Z,99.90
2023-03-10T09:57:29.510Z,99.90
2023-03-10T10:00:00.649Z,99.90
2023-03-10T10:02:34.453Z,99.90
2023-03-10T10:05:06.961Z,99.90
2023-03-10T10:07:46.677Z,99.90
2023-03-10T10:10:29.519Z,99.90
2023-03-10T10:13:01.239Z,99.90
2023-03-10T10:15:32.886Z,99.90
2023-03-10T10:18:18.061Z,99.90
2023-03-10T10:21:19.153Z,99.90
2023-03-10T10:23:52.884Z,99.90
2023-03-10T10:26:26.988Z,99.90
2023-03-10T10:29:17.469Z,99.90
2023-03-10T10:32:11.820Z,99.90
2023-03-10T10:34:44.048Z,99.90
2023-03-10T10:37:42.845Z,99.90
2023-03-10T10:40:25.683Z,99.90
2023-03-10T10:42:57.698Z,99.90
2023-03-10T10:45:32.865Z,99.90
2023-03-10T10:48:00.526Z,99.90
2023-03-10T10:50:28.489Z,99.90
2023-03-10T10:53:21.718Z,99.90
2023-03-10T10:56:00.759Z,99.90
2023-03-10T10:58:39.208Z,99.90
2023-03-10T11:01:08.806Z,99.90
2023-03-10T11:03:41.375Z,99.90
2023-03-10T11:06:14.531Z,99.90
2023-03-10T11:08:45.177Z,99.90
2023-03-10T11:11:53.861Z,99.90
2023-03-10T11:14:46.064Z,99.90
2023-03-10T11:17:34.983Z,99.90
2023-03-10T11:20:23.718Z,99.90
2023-03-10T11:23:02.675Z,99.90
2023-03-10T11:25:36.974Z,99.90
2023-03-10T11:28:15.925Z,99.90
2023-03-10T11:31:13.464Z,99.90
2023-03-10T11:33:46.732Z,99.90
2023-03-10T11:36:13.541Z,99.90
2023-03-10T11:38:43.565Z,99.90
2023-03-10T11:41:20.197Z,99.90
2023-03-10T11:44:13.576Z,99.90
2023-03-10T11:47:16.214Z,99.90
2023-03-10T11:49:47.360Z,99.90
2023-03-10T11:52:18.822Z,99.90
2023-03-10T11:54:54.389Z,99.90
2023-03-10T11:57:23.555Z,99.90
2023-03-10T11:59:55.487Z,99.90
2023-03-10T12:02:28.615Z,99.90
2023-03-10T12:05:08.497Z,99.90
2023-03-10T12:07:42.725Z,99.90
2023-03-10T12:10:12.595Z,99.90
2023-03-10T12:12:41.686Z,99.90
2023-03-10T12:15:29.090Z,99.90
2023-03-10T12:17:56.380Z,99.90
2023-03-10T12:20:26.420Z,99.90
2023-03-10T12:22:56.094Z,99.90
2023-03-10T12:25:33.280Z,99.90
2023-03-10T12:28:27.417Z,99.90
2023-03-10T12:31:00.185Z,99.90
2023-03-10T12:33:42.338Z,99.90
2023-03-10T12:36:11.683Z,99.90
2023-03-10T12:38:48.966Z,99.90
2023-03-10T12:41:28.156Z,99.90
2023-03-10T12:44:21.142Z,99.90
2023-03-10T12:47:07.864Z,99.90
2023-03-10T12:49:40.805Z,99.90
2023-03-10T12:52:10.409Z,99.90
2023-03-10T12:54:55.857Z,99.90
2023-03-10T12:57:34.255Z,99.90
2023-03-10T13:00:36.727Z,99.90
2023-03-10T13:03:09.749Z,99.90
2023-03-10T13:05:56.992Z,99.90
2023-03-10T13:08:45.113Z,99.90
2023-03-10T13:11:24.616Z,99.90
2023-03-10T13:13:57.621Z,99.90
2023-03-10T13:16:24.405Z,99.90
2023-03-10T13:18:53.424Z,99.90
2023-03-10T13:21:26.491Z,99.90
2023-03-10T13:23:53.547Z,99.90
2023-03-10T13:26:21.916Z,99.90
2023-03-10T13:29:17.127Z,99.90
2023-03-10T13:31:54.122Z,99.90
2023-03-10T13:34:23.641Z,99.90
2023-03-10T13:36:50.466Z,99.90
2023-03-10T13:39:22.403Z,99.90
2023-03-10T13:41:53.731Z,99.90
2023-03-10T13:44:24.118Z,99.90
2023-03-10T13:46:53.630Z,99.90
2023-03-10T13:49:25.598Z,99.90
2023-03-10T13:51:58.671Z,99.90
2023-03-10T13:54:33.579Z,99.90
2023-03-10T13:57:03.387Z,99.90
2023-03-10T13:59:31.785Z,99.90
2023-03-10T14:02:00.874Z,99.90
2023-03-10T14:04:48.937Z,99.90
2023-03-10T14:07:18.497Z,99.90
2023-03-10T14:10:10.501Z,99.90
2023-03-10T14:12:51.520Z,99.90
2023-03-10T14:15:27.429Z,99.90
2023-03-10T14:18:06.464Z,99.90
2023-03-10T14:20:36.433Z,99.90
2023-03-10T14:23:26.506Z,99.90
2023-03-10T14:25:57.804Z,99.90
2023-03-10T14:28:32.557Z,99.90
2023-03-10T14:31:04.722Z,99.90
2023-03-10T14:33:31.525Z,99.90
2023-03-10T14:35:58.381Z,99.90
2023-03-10T14:38:25.203Z,99.90
2023-03-10T14:40:55.498Z,99.90
2023-03-10T14:43:28.907Z,99.90
2023-03-10T14:45:58.808Z,99.90
2023-03-10T14:48:29.061Z,99.90
2023-03-10T14:50:57.042Z,99.90
2023-03-10T14:53:25.725Z,99.90
2023-03-10T14:55:55.976Z,99.90
2023-03-10T14:58:40.944Z,99.90
2023-03-10T15:01:07.781Z,99.90
2023-03-10T15:03:34.630Z,99.90
2023-03-10T15:06:02.597Z,99.90
2023-03-10T15:08:30.643Z,99.90
2023-03-10T15:10:57.751Z,99.90
2023-03-10T15:13:25.052Z,99.90
2023-03-10T15:15:52.289Z,99.90
2023-03-10T15:18:21.710Z,99.90
2023-03-10T15:20:49.264Z,99.90
2023-03-10T15:23:19.396Z,99.90
2023-03-10T15:25:49.805Z,99.90
2023-03-10T15:28:16.618Z,99.90
2023-03-10T15:30:43.493Z,99.90
2023-03-10T15:33:13.631Z,99.90
2023-03-10T15:35:41.517Z,99.90
2023-03-10T15:38:10.197Z,99.90
2023-03-10T15:40:38.852Z,99.90
2023-03-10T15:43:05.621Z,99.90
2023-03-10T15:45:32.620Z,99.90
2023-03-10T15:47:59.873Z,99.90
2023-03-10T15:50:27.003Z,99.90
2023-03-10T15:52:56.397Z,99.90
2023-03-10T15:55:24.179Z,99.90
2023-03-10T15:57:51.456Z,99.90
2023-03-10T16:00:20.650Z,99.90
2023-03-10T16:02:48.028Z,99.90
2023-03-10T16:05:15.440Z,99.90
2023-03-10T16:07:42.238Z,99.90
2023-03-10T16:10:15.568Z,99.90
2023-03-10T16:12:42.506Z,99.90
2023-03-10T16:15:09.983Z,99.90
2023-03-10T16:17:36.858Z,99.90
2023-03-10T16:20:10.292Z,99.90
2023-03-10T16:22:40.536Z,99.90
2023-03-10T16:25:10.198Z,99.90
2023-03-10T16:27:37.091Z,99.90
2023-03-10T16:30:05.103Z,99.90
2023-03-10T16:32:32.099Z,99.90
2023-03-10T16:35:00.110Z,99.90
2023-03-10T16:37:28.358Z,99.90
2023-03-10T16:39:56.346Z,99.90
2023-03-10T16:42:23.918Z,99.90
2023-03-10T16:44:50.796Z,99.90
2023-03-10T16:47:18.174Z,99.90
2023-03-10T16:49:45.577Z,99.90
2023-03-10T16:52:12.393Z,99.90
2023-03-10T16:54:39.345Z,99.90
2023-03-10T16:57:07.133Z,99.90
2023-03-10T16:59:34.001Z,99.90
2023-03-10T17:02:00.906Z,99.90
2023-03-10T17:04:28.265Z,99.90
2023-03-10T17:07:00.043Z,99.90
2023-03-10T17:09:27.505Z,99.90
2023-03-10T17:11:56.842Z,99.90
2023-03-10T17:14:24.796Z,99.90
2023-03-10T17:17:00.358Z,99.90
2023-03-10T17:19:30.357Z,99.90
2023-03-10T17:22:03.643Z,99.90
2023-03-10T17:24:31.711Z,99.90
2023-03-10T17:27:07.514Z,99.90
2023-03-10T17:29:34.720Z,99.90
2023-03-10T17:32:14.481Z,99.90
2023-03-10T17:34:42.173Z,99.90
2023-03-10T17:37:12.011Z,99.90
2023-03-10T17:39:42.779Z,99.90
2023-03-10T17:42:15.875Z,99.90
2023-03-10T17:44:45.498Z,99.90
2023-03-10T17:47:20.320Z,99.90
2023-03-10T17:49:49.225Z,99.90
2023-03-10T17:52:27.783Z,99.90
2023-03-10T17:54:57.701Z,99.90
2023-03-10T17:57:27.705Z,99.90
2023-03-10T18:00:01.313Z,99.90
2023-03-10T18:02:30.848Z,99.90
2023-03-10T18:05:00.197Z,99.90
2023-03-10T18:07:27.766Z,99.90
2023-03-10T18:09:56.754Z,99.90
2023-03-10T18:12:23.788Z,99.90
2023-03-10T18:14:51.001Z,99.90
2023-03-10T18:17:29.139Z,99.90
2023-03-10T18:20:04.232Z,99.90
2023-03-10T18:22:40.142Z,99.90
2023-03-10T18:25:07.521Z,99.90
2023-03-10T18:27:35.869Z,99.90
2023-03-10T18:30:05.729Z,99.90
2023-03-10T18:32:37.091Z,99.90
2023-03-10T18:35:07.511Z,99.90
2023-03-10T18:37:34.856Z,99.90
2023-03-10T18:40:02.540Z,99.90
2023-03-10T18:42:35.799Z,99.90
2023-03-10T18:45:12.502Z,99.90
2023-03-10T18:47:39.956Z,99.90
2023-03-10T18:50:11.362Z,99.90
2023-03-10T18:53:06.164Z,99.90
2023-03-10T18:55:50.721Z,99.90
2023-03-10T18:58:18.240Z,99.90
2023-03-10T19:00:56.520Z,99.90
2023-03-10T19:03:34.385Z,99.90
2023-03-10T19:06:07.696Z,99.90
2023-03-10T19:08:39.695Z,99.90
2023-03-10T19:11:07.412Z,99.90
2023-03-10T19:13:34.938Z,99.90
2023-03-10T19:16:12.894Z,99.90
2023-03-10T19:18:49.352Z,99.90
2023-03-10T19:21:23.116Z,99.90
2023-03-10T19:23:53.680Z,99.90
2023-03-10T19:26:20.825Z,99.90
2023-03-10T19:29:01.297Z,99.90
2023-03-10T19:31:30.824Z,99.90
2023-03-10T19:34:00.184Z,99.90
2023-03-10T19:36:31.575Z,99.90
2023-03-10T19:39:07.469Z,99.90
2023-03-10T19:41:34.539Z,99.90
2023-03-10T19:44:02.853Z,99.90
2023-03-10T19:46:33.449Z,99.90
2023-03-10T19:49:05.190Z,99.90
2023-03-10T19:51:41.271Z,99.90
2023-03-10T19:54:11.428Z,99.90
2023-03-10T19:56:41.591Z,99.90
2023-03-10T19:59:23.900Z,99.90
2023-03-10T20:01:53.705Z,99.90
2023-03-10T20:04:20.869Z,99.90
2023-03-10T20:06:50.263Z,99.90
2023-03-10T20:09:19.203Z,99.90
2023-03-10T20:11:48.801Z,99.90
2023-03-10T20:14:15.964Z,99.90
2023-03-10T20:16:53.292Z,99.90
2023-03-10T20:19:22.932Z,99.90
2023-03-10T20:21:55.863Z,99.90
2023-03-10T20:24:28.305Z,99.90
2023-03-10T20:26:58.629Z,99.90
2023-03-10T20:29:48.326Z,99.90
2023-03-10T20:32:34.045Z,99.90
2023-03-10T20:35:04.261Z,99.90
2023-03-10T20:37:36.169Z,99.90
2023-03-10T20:40:30.611Z,99.90
2023-03-10T20:43:03.848Z,99.90
2023-03-10T20:45:31.884Z,99.90
2023-03-10T20:48:09.182Z,99.90
2023-03-10T20:50:42.757Z,99.90
2023-03-10T20:53:10.944Z,99.90
2023-03-10T20:55:38.133Z,99.90
2023-03-10T20:58:09.098Z,99.90
2023-03-10T21:00:37.988Z,99.90
2023-03-10T21:03:14.573Z,99.90
2023-03-10T21:08:41.082Z,99.90
2023-03-10T21:11:19.973Z,99.90
2023-03-10T21:13:54.767Z,99.90
2023-03-10T21:16:36.647Z,99.90
2023-03-10T21:19:09.182Z,99.90
2023-03-10T21:21:42.899Z,99.90
2023-03-10T21:24:12.903Z,99.90
2023-03-10T21:26:39.767Z,99.90
2023-03-10T21:29:06.591Z,99.90
2023-03-10T21:31:33.338Z,99.90
2023-03-10T21:34:00.166Z,99.90
2023-03-10T21:36:27.068Z,99.90
2023-03-10T21:38:53.858Z,99.90
2023-03-10T21:41:26.613Z,99.90
2023-03-10T21:43:54.583Z,99.90
2023-03-10T21:46:21.603Z,99.90
2023-03-10T21:48:48.645Z,99.90
2023-03-10T21:51:17.687Z,99.90
2023-03-10T21:53:45.621Z,99.90
2023-03-10T21:56:12.780Z,99.90
2023-03-10T21:58:39.666Z,99.90
2023-03-10T22:01:07.682Z,99.90
2023-03-10T22:03:35.268Z,99.90
2023-03-10T22:06:04.888Z,99.90
2023-03-10T22:08:33.395Z,99.90
2023-03-10T22:11:01.109Z,99.90
2023-03-10T22:13:28.289Z,99.90
2023-03-10T22:15:55.121Z,99.90
2023-03-10T22:18:22.064Z,99.90
2023-03-10T22:20:48.840Z,99.90
2023-03-10T22:23:15.838Z,99.90
2023-03-10T22:25:42.628Z,99.90
2023-03-10T22:28:09.680Z,99.90
2023-03-10T22:30:36.561Z,99.90
2023-03-10T22:33:03.435Z,99.90
2023-03-10T22:35:30.303Z,99.90
2023-03-10T22:37:57.190Z,99.90
2023-03-10T22:40:25.433Z,99.90
2023-03-10T22:42:52.948Z,99.90
2023-03-10T22:45:26.627Z,99.90
2023-03-10T22:47:57.363Z,99.90
2023-03-10T22:50:33.854Z,99.90
2023-03-10T22:53:02.936Z,99.90
2023-03-10T22:55:35.040Z,99.90
2023-03-10T22:58:07.104Z,99.90
2023-03-10T23:00:35.019Z,99.90
2023-03-10T23:03:02.544Z,99.90
2023-03-10T23:05:29.471Z,99.90
2023-03-10T23:07:57.480Z,99.90
2023-03-10T23:10:30.077Z,99.90
2023-03-10T23:12:59.900Z,99.90
2023-03-10T23:15:29.668Z,99.90
2023-03-10T23:17:57.430Z,99.90
2023-03-10T23:20:27.623Z,99.90
2023-03-10T23:22:56.939Z,99.90
2023-03-10T23:25:30.439Z,99.90
2023-03-10T23:27:57.485Z,99.90
2023-03-10T23:30:24.961Z,99.90
2023-03-10T23:32:52.501Z,99.90
2023-03-10T23:35:22.797Z,99.90
2023-03-10T23:37:49.780Z,99.90
2023-03-10T23:40:18.909Z,99.90
2023-03-10T23:42:46.517Z,99.90
2023-03-10T23:45:19.168Z,99.90
2023-03-10T23:47:47.247Z,99.90
2023-03-10T23:50:28.244Z,99.90
2023-03-10T23:52:55.643Z,99.90
2023-03-10T23:55:25.452Z,99.90
2023-03-10T23:57:52.904Z,99.90
